createdAt,value
2019-01-14T00:02:35.940Z,1.55
2019-01-14T00:05:24.014Z,1.50
2019-01-14T00:08:05.837Z,1.27
2019-01-14T00:10:53.824Z,2.10
2019-01-14T00:13:35.133Z,1.65
2019-01-14T00:16:16.744Z,1.40
2019-01-14T00:19:04.741Z,1.65
2019-01-14T00:21:46.852Z,1.80
2019-01-14T00:24:34.858Z,1.98
2019-01-14T00:27:16.689Z,2.10
2019-01-14T00:30:24.078Z,1.90
2019-01-14T00:33:06.682Z,1.75
2019-01-14T00:35:48.160Z,1.77
2019-01-14T00:38:36.179Z,2.45
2019-01-14T00:41:24.213Z,2.00
2019-01-14T00:44:12.207Z,1.82
2019-01-14T00:47:00.249Z,2.02
2019-01-14T00:49:42.488Z,1.70
2019-01-14T00:52:30.540Z,1.80
2019-01-14T00:55:11.950Z,2.12
2019-01-14T00:57:59.989Z,2.10
2019-01-14T01:00:41.879Z,2.45
2019-01-14T01:03:29.869Z,1.72
2019-01-14T01:06:11.556Z,1.80
2019-01-14T01:08:59.608Z,2.30
2019-01-14T01:11:28.347Z,2.20
2019-01-14T01:14:16.321Z,2.10
2019-01-14T01:17:04.471Z,1.70
2019-01-14T01:19:46.543Z,2.92
2019-01-14T01:22:27.870Z,2.00
2019-01-14T01:25:15.914Z,2.52
2019-01-14T01:27:57.892Z,2.12
2019-01-14T01:30:45.966Z,1.62
2019-01-14T01:33:27.756Z,1.75
2019-01-14T01:35:56.425Z,1.80
2019-01-14T01:38:44.509Z,2.35
2019-01-14T01:41:26.524Z,2.45
2019-01-14T01:44:14.568Z,2.37
2019-01-14T01:46:56.623Z,2.10
2019-01-14T01:49:44.664Z,1.60
2019-01-14T01:52:25.886Z,2.17
2019-01-14T01:55:13.555Z,2.25
2019-01-14T01:57:55.692Z,1.85
2019-01-14T02:00:43.760Z,1.70
2019-01-14T02:03:31.802Z,2.15
2019-01-14T02:06:13.641Z,1.90
2019-01-14T02:09:01.654Z,1.90
2019-01-14T02:11:43.824Z,1.50
2019-01-14T02:14:27.127Z,2.15
2019-01-14T02:20:13.885Z,2.02
2019-01-14T02:23:01.999Z,1.87
2019-01-14T02:25:44.299Z,1.92
2019-01-14T02:28:32.525Z,2.30
2019-01-14T02:31:14.191Z,2.27
2019-01-14T02:34:02.401Z,2.37
2019-01-14T02:36:48.383Z,1.70
2019-01-14T02:39:33.672Z,2.25
2019-01-14T02:42:15.583Z,2.30
2019-01-14T02:45:04.195Z,2.75
2019-01-14T02:47:45.757Z,2.02
2019-01-14T02:50:33.804Z,2.12
2019-01-14T02:53:02.594Z,2.25
2019-01-14T02:55:50.607Z,2.10
2019-01-14T02:58:32.432Z,2.00
2019-01-14T03:01:20.465Z,1.40
2019-01-14T03:04:02.290Z,1.55
2019-01-14T03:06:57.578Z,2.00
2019-01-14T03:09:33.320Z,2.10
2019-01-14T03:12:15.453Z,2.05
2019-01-14T03:15:24.216Z,2.00
2019-01-14T03:18:05.618Z,2.17
2019-01-14T03:20:53.665Z,1.90
2019-01-14T03:23:35.453Z,2.55
2019-01-14T03:26:23.489Z,2.08
2019-01-14T03:29:05.257Z,2.10
2019-01-14T03:31:53.304Z,1.92
2019-01-14T03:34:35.158Z,2.12
2019-01-14T03:37:23.227Z,1.77
2019-01-14T03:40:06.965Z,1.85
2019-01-14T03:42:55.104Z,1.90
2019-01-14T03:45:36.581Z,1.50
2019-01-14T03:48:05.454Z,2.87
2019-01-14T03:50:53.456Z,2.25
2019-01-14T03:53:41.537Z,2.35
2019-01-14T03:56:23.537Z,2.20
2019-01-14T03:59:11.566Z,2.40
2019-01-14T04:01:53.297Z,2.45
2019-01-14T04:04:41.367Z,1.72
2019-01-14T04:07:22.859Z,2.45
2019-01-14T04:10:10.509Z,1.85
2019-01-14T04:12:52.638Z,1.98
2019-01-14T04:15:40.657Z,2.90
2019-01-14T04:18:22.578Z,1.95
2019-01-14T04:21:10.614Z,1.72
2019-01-14T04:23:51.791Z,1.37
2019-01-14T04:26:39.918Z,2.60
2019-01-14T04:29:22.320Z,2.20
2019-01-14T04:32:10.365Z,2.60
2019-01-14T04:34:51.787Z,2.65
2019-01-14T04:37:39.860Z,1.92
2019-01-14T04:40:22.056Z,2.10
2019-01-14T04:43:10.104Z,2.45
2019-01-14T04:45:51.715Z,2.37
2019-01-14T04:48:39.762Z,1.87
2019-01-14T04:51:21.830Z,2.25
2019-01-14T04:54:09.850Z,2.00
2019-01-14T04:56:51.504Z,1.77
2019-01-14T04:59:33.555Z,2.52
2019-01-14T05:02:16.120Z,2.55
2019-01-14T05:05:18.095Z,2.35
2019-01-14T05:07:59.789Z,2.17
2019-01-14T05:10:47.823Z,2.45
2019-01-14T05:13:35.880Z,2.65
2019-01-14T05:16:17.918Z,2.33
2019-01-14T05:19:05.912Z,2.20
2019-01-14T05:21:48.023Z,2.22
2019-01-14T05:24:16.751Z,3.02
2019-01-14T05:27:04.841Z,2.37
2019-01-14T05:29:46.434Z,2.10
2019-01-14T05:32:34.513Z,2.10
2019-01-14T05:35:16.690Z,2.60
2019-01-14T05:38:04.815Z,3.08
2019-01-14T05:40:46.671Z,2.47
2019-01-14T05:43:36.286Z,2.95
2019-01-14T05:46:17.553Z,2.87
2019-01-14T05:49:05.710Z,2.98
2019-01-14T05:51:47.445Z,2.33
2019-01-14T05:54:35.536Z,3.40
2019-01-14T05:57:16.827Z,2.55
2019-01-14T06:00:25.560Z,2.80
2019-01-14T06:03:08.841Z,2.83
2019-01-14T06:05:56.868Z,3.20
2019-01-14T06:08:45.071Z,2.70
2019-01-14T06:11:27.492Z,2.52
2019-01-14T06:14:15.744Z,2.98
2019-01-14T06:16:57.737Z,2.47
2019-01-14T06:19:45.982Z,2.85
2019-01-14T06:22:27.131Z,3.50
2019-01-14T06:25:15.395Z,2.90
2019-01-14T06:27:57.099Z,2.95
2019-01-14T06:30:45.192Z,2.25
2019-01-14T06:33:26.880Z,2.58
2019-01-14T06:36:14.883Z,3.12
2019-01-14T06:38:57.216Z,2.50
2019-01-14T06:41:45.256Z,2.35
2019-01-14T06:44:33.273Z,2.25
2019-01-14T06:47:21.430Z,3.08
2019-01-14T06:50:02.667Z,2.72
2019-01-14T06:52:50.815Z,2.70
2019-01-14T06:55:32.322Z,2.62
2019-01-14T06:58:14.107Z,4.55
2019-01-14T07:01:02.183Z,3.50
2019-01-14T07:03:31.194Z,2.47
2019-01-14T07:06:19.250Z,3.15
2019-01-14T07:09:07.353Z,3.27
2019-01-14T07:11:49.882Z,3.27
2019-01-14T07:14:38.033Z,2.92
2019-01-14T07:17:20.470Z,2.45
2019-01-14T07:23:26.138Z,2.70
2019-01-14T07:26:08.176Z,2.35
2019-01-14T07:28:49.888Z,3.65
2019-01-14T07:31:38.529Z,2.60
2019-01-14T07:34:26.611Z,2.50
2019-01-14T07:37:10.391Z,2.50
2019-01-14T07:39:52.676Z,2.80
2019-01-14T07:42:40.706Z,2.65
2019-01-14T07:45:22.360Z,4.22
2019-01-14T07:48:10.384Z,2.30
2019-01-14T07:50:52.033Z,2.65
2019-01-14T07:53:40.109Z,2.72
2019-01-14T07:56:22.667Z,2.33
2019-01-14T08:02:13.848Z,2.60
2019-01-14T08:10:55.637Z,3.90
2019-01-14T08:10:57.273Z,2.70
2019-01-14T08:13:38.974Z,2.83
2019-01-14T08:16:21.549Z,3.98
2019-01-14T08:18:51.499Z,3.20
2019-01-14T08:21:39.914Z,3.10
2019-01-14T08:24:24.194Z,2.58
2019-01-14T08:27:12.296Z,3.40
2019-01-14T08:29:53.469Z,3.37
2019-01-14T08:32:41.552Z,3.30
2019-01-14T08:35:23.429Z,3.05
2019-01-14T08:38:11.489Z,2.75
2019-01-14T08:40:53.260Z,4.08
2019-01-14T08:49:35.204Z,3.15
2019-01-14T08:52:23.240Z,3.72
2019-01-14T08:55:04.690Z,3.83
2019-01-14T08:57:54.797Z,3.30
2019-01-14T09:00:36.207Z,3.58
2019-01-14T09:03:24.300Z,3.00
2019-01-14T09:06:05.756Z,3.83
2019-01-14T09:08:34.910Z,3.50
2019-01-14T09:11:03.947Z,3.12
2019-01-14T09:13:52.012Z,2.95
2019-01-14T09:16:40.062Z,3.12
2019-01-14T09:19:22.365Z,4.20
2019-01-14T09:22:10.409Z,2.40
2019-01-14T09:24:51.853Z,3.50
2019-01-14T09:27:20.624Z,2.90
2019-01-14T09:30:27.914Z,3.27
2019-01-14T09:33:10.698Z,3.47
2019-01-14T09:35:58.844Z,2.87
2019-01-14T09:38:40.127Z,2.95
2019-01-14T09:41:28.187Z,3.58
2019-01-14T09:44:10.198Z,4.92
2019-01-14T09:46:58.223Z,5.65
2019-01-14T09:49:46.375Z,4.75
2019-01-14T09:52:14.989Z,3.30
2019-01-14T09:55:05.738Z,4.67
2019-01-14T09:57:47.106Z,4.78
2019-01-14T10:00:35.109Z,4.00
2019-01-14T10:03:16.872Z,3.60
2019-01-14T10:06:04.875Z,4.22
2019-01-14T10:08:46.187Z,5.15
2019-01-14T10:11:34.117Z,4.22
2019-01-14T10:14:15.450Z,4.10
2019-01-14T10:17:03.524Z,4.72
2019-01-14T10:19:52.060Z,4.25
2019-01-14T10:22:33.945Z,4.78
2019-01-14T10:25:15.584Z,4.20
2019-01-14T10:27:57.694Z,5.87
2019-01-14T10:30:45.717Z,3.90
2019-01-14T10:33:28.011Z,4.78
2019-01-14T10:36:16.895Z,4.78
2019-01-14T10:38:58.117Z,5.30
2019-01-14T10:41:47.179Z,4.40
2019-01-14T10:44:30.035Z,4.87
2019-01-14T10:47:17.976Z,5.20
2019-01-14T10:49:59.419Z,4.58
2019-01-14T10:52:47.468Z,5.00
2019-01-14T10:55:29.243Z,4.35
2019-01-14T10:58:17.326Z,4.08
2019-01-14T11:00:46.120Z,3.80
2019-01-14T11:03:34.504Z,4.00
2019-01-14T11:06:16.151Z,4.60
2019-01-14T11:12:05.352Z,5.05
2019-01-14T11:14:53.370Z,4.08
2019-01-14T11:17:34.561Z,4.10
2019-01-14T11:20:41.996Z,2.98
2019-01-14T11:23:24.039Z,4.90
2019-01-14T11:32:37.215Z,5.55
2019-01-14T11:35:27.205Z,4.75
2019-01-14T11:38:12.540Z,4.92
2019-01-14T11:41:00.640Z,4.78
2019-01-14T11:43:41.874Z,5.17
2019-01-14T11:46:29.987Z,4.10
2019-01-14T11:49:11.233Z,4.65
2019-01-14T11:51:59.408Z,4.40
2019-01-14T11:54:40.939Z,5.03
2019-01-14T11:57:29.065Z,4.40
2019-01-14T12:00:15.653Z,4.05
2019-01-14T12:03:03.946Z,3.98
2019-01-14T12:05:45.761Z,4.45
2019-01-14T12:08:28.534Z,4.40
2019-01-14T12:10:57.600Z,4.40
2019-01-14T12:13:26.647Z,4.30
2019-01-14T12:15:55.627Z,4.40
2019-01-14T12:18:43.937Z,4.00
2019-01-14T12:21:32.042Z,4.62
2019-01-14T12:24:20.289Z,4.22
2019-01-14T12:27:01.587Z,4.33
2019-01-14T12:29:49.673Z,2.15
2019-01-14T12:32:31.290Z,2.20
2019-01-14T12:35:19.437Z,2.90
2019-01-14T12:38:02.304Z,4.35
2019-01-14T12:40:50.361Z,2.92
2019-01-14T12:43:20.198Z,1.75
2019-01-14T12:45:49.474Z,2.30
2019-01-14T12:48:37.566Z,1.80
2019-01-14T12:51:19.526Z,1.90
2019-01-14T12:54:07.702Z,1.30
2019-01-14T12:56:51.177Z,1.17
2019-01-14T12:59:39.344Z,1.10
2019-01-14T13:02:20.725Z,8.23
2019-01-14T13:05:01.581Z,14.98
2019-01-14T13:07:43.232Z,2.80
2019-01-14T13:10:31.434Z,1.07
2019-01-14T13:13:00.152Z,1.05
2019-01-14T13:15:28.975Z,1.10
2019-01-14T13:18:17.143Z,1.60
2019-01-14T13:21:05.302Z,1.62
2019-01-14T13:23:47.311Z,1.75
2019-01-14T13:26:29.372Z,1.50
2019-01-14T13:29:17.427Z,1.50
2019-01-14T13:31:59.584Z,1.95
2019-01-14T13:34:47.621Z,1.22
2019-01-14T13:37:29.562Z,1.00
2019-01-14T13:40:17.695Z,1.62
2019-01-14T13:42:46.520Z,1.50
2019-01-14T13:45:55.260Z,1.85
2019-01-14T13:48:44.080Z,2.33
2019-01-14T13:51:32.115Z,1.60
2019-01-14T13:54:13.360Z,1.40
2019-01-14T13:57:01.348Z,1.70
2019-01-14T13:59:43.304Z,1.80
2019-01-14T14:02:31.435Z,2.95
2019-01-14T14:05:13.470Z,2.62
2019-01-14T14:08:01.489Z,2.15
2019-01-14T14:10:45.447Z,2.42
2019-01-14T14:13:33.567Z,2.00
2019-01-14T14:16:19.025Z,2.30
2019-01-14T14:18:47.788Z,1.80
2019-01-14T14:21:35.873Z,1.82
2019-01-14T14:24:24.001Z,1.80
2019-01-14T14:27:05.782Z,1.70
2019-01-14T14:29:53.778Z,3.00
2019-01-14T14:32:35.847Z,1.72
2019-01-14T14:35:17.962Z,2.12
2019-01-14T14:37:46.690Z,2.15
2019-01-14T14:40:34.847Z,1.55
2019-01-14T14:45:48.921Z,1.70
2019-01-14T14:48:36.988Z,1.87
2019-01-14T14:51:25.035Z,2.20
2019-01-14T14:54:13.095Z,2.25
2019-01-14T15:00:25.113Z,2.05
2019-01-14T15:03:06.596Z,2.45
2019-01-14T15:05:54.825Z,2.47
2019-01-14T15:08:38.721Z,3.27
2019-01-14T15:11:26.890Z,3.05
2019-01-14T15:13:55.790Z,3.50
2019-01-14T15:16:43.899Z,2.95
2019-01-14T15:19:28.286Z,3.20
2019-01-14T15:22:18.014Z,2.60
2019-01-14T15:25:25.008Z,3.50
2019-01-14T15:27:49.997Z,3.50
2019-01-14T15:33:46.791Z,2.62
2019-01-14T15:36:28.796Z,3.47
2019-01-14T15:39:22.635Z,3.85
2019-01-14T15:42:09.116Z,3.42
2019-01-14T15:44:38.464Z,3.80
2019-01-14T15:47:26.746Z,3.10
2019-01-14T15:50:09.615Z,2.87
2019-01-14T15:55:45.110Z,2.85
2019-01-14T15:58:33.334Z,3.47
2019-01-14T16:04:23.535Z,5.08
2019-01-14T16:07:11.539Z,4.03
2019-01-14T16:09:53.720Z,3.47
2019-01-14T16:12:41.909Z,4.37
2019-01-14T16:15:24.093Z,3.00
2019-01-14T16:18:12.178Z,3.55
2019-01-14T16:20:56.286Z,3.55
2019-01-14T16:23:37.828Z,3.35
2019-01-14T16:26:25.912Z,3.67
2019-01-14T16:28:54.641Z,3.30
2019-01-14T16:31:42.789Z,3.02
2019-01-14T16:34:30.853Z,3.77
2019-01-14T16:37:12.769Z,4.10
2019-01-14T16:40:00.906Z,3.60
2019-01-14T16:42:42.470Z,4.22
2019-01-14T16:45:30.944Z,3.30
2019-01-14T16:48:12.954Z,4.12
2019-01-14T16:51:01.048Z,3.47
2019-01-14T16:53:42.734Z,3.30
2019-01-14T16:56:30.769Z,3.10
2019-01-14T16:59:18.776Z,3.45
2019-01-14T17:02:06.896Z,3.37
2019-01-14T17:04:49.027Z,3.47
2019-01-14T17:10:34.816Z,3.02
2019-01-14T17:13:17.738Z,2.58
2019-01-14T17:16:05.751Z,2.75
2019-01-14T17:18:55.364Z,2.70
2019-01-14T17:21:24.065Z,2.50
2019-01-14T17:24:12.120Z,3.15
2019-01-14T17:26:53.560Z,3.00
2019-01-14T17:29:41.590Z,3.02
2019-01-14T17:32:22.912Z,3.47
2019-01-14T17:34:51.648Z,3.47
2019-01-14T17:37:39.620Z,3.17
2019-01-14T17:40:21.390Z,2.95
2019-01-14T17:43:09.412Z,2.90
2019-01-14T17:45:51.778Z,2.90
2019-01-14T17:48:40.001Z,2.90
2019-01-14T17:51:28.038Z,3.50
2019-01-14T17:54:09.317Z,3.45
2019-01-14T17:56:38.127Z,3.12
2019-01-14T17:59:26.256Z,3.35
2019-01-14T18:02:08.247Z,4.50
2019-01-14T18:04:56.278Z,3.60
2019-01-14T18:07:38.477Z,4.05
2019-01-14T18:10:26.523Z,4.10
2019-01-14T18:13:08.589Z,4.70
2019-01-14T18:15:56.614Z,4.12
2019-01-14T18:18:38.114Z,3.55
2019-01-14T18:21:26.126Z,3.62
2019-01-14T18:24:07.493Z,3.20
2019-01-14T18:26:55.667Z,3.50
2019-01-14T18:29:43.651Z,3.10
2019-01-14T18:32:25.610Z,4.22
2019-01-14T18:35:13.686Z,3.55
2019-01-14T18:37:55.215Z,2.60
2019-01-14T18:40:47.134Z,3.55
2019-01-14T18:43:26.790Z,3.45
2019-01-14T18:46:14.803Z,3.08
2019-01-14T18:48:56.929Z,2.80
2019-01-14T18:51:45.057Z,2.60
2019-01-14T18:54:26.967Z,3.27
2019-01-14T18:57:15.110Z,3.47
2019-01-14T18:59:57.147Z,2.85
2019-01-14T19:02:45.113Z,3.00
2019-01-14T19:05:26.623Z,2.75
2019-01-14T19:08:14.686Z,3.20
2019-01-14T19:10:58.264Z,2.27
2019-01-14T19:13:46.500Z,2.47
2019-01-14T19:16:27.749Z,3.50
2019-01-14T19:19:15.821Z,5.40
2019-01-14T19:21:57.510Z,2.58
2019-01-14T19:24:26.218Z,2.25
2019-01-14T19:27:16.489Z,3.10
2019-01-14T19:30:18.545Z,2.90
2019-01-14T19:33:00.544Z,3.05
2019-01-14T19:35:48.457Z,2.85
2019-01-14T19:38:36.631Z,3.10
2019-01-14T19:41:18.279Z,2.92
2019-01-14T19:44:06.364Z,2.67
2019-01-14T19:46:48.749Z,2.72
2019-01-14T19:49:36.750Z,3.27
2019-01-14T19:52:18.397Z,3.40
2019-01-14T19:55:06.690Z,3.10
2019-01-14T19:57:48.318Z,3.65
2019-01-14T20:00:36.378Z,3.15
2019-01-14T20:03:17.922Z,4.03
2019-01-14T20:06:05.996Z,3.27
2019-01-14T20:08:47.975Z,3.55
2019-01-14T20:11:36.106Z,3.22
2019-01-14T20:14:18.410Z,3.35
2019-01-14T20:17:06.487Z,3.35
2019-01-14T20:19:48.445Z,4.00
2019-01-14T20:22:36.482Z,4.50
2019-01-14T20:25:18.261Z,4.70
2019-01-14T20:28:00.935Z,3.83
2019-01-14T20:30:42.984Z,4.60
2019-01-14T20:33:31.050Z,4.15
2019-01-14T20:36:12.853Z,3.37
2019-01-14T20:39:00.843Z,3.47
2019-01-14T20:41:42.423Z,3.77
2019-01-14T20:44:30.518Z,3.20
2019-01-14T20:47:12.526Z,3.30
2019-01-14T20:50:00.509Z,3.27
2019-01-14T20:52:42.619Z,4.00
2019-01-14T20:55:30.746Z,2.85
2019-01-14T20:58:12.752Z,4.10
2019-01-14T21:01:00.714Z,3.75
2019-01-14T21:03:42.901Z,3.80
2019-01-14T21:06:31.124Z,3.62
2019-01-14T21:09:14.670Z,4.85
2019-01-14T21:12:02.678Z,4.55
2019-01-14T21:14:50.731Z,4.30
2019-01-14T21:17:32.502Z,3.50
2019-01-14T21:20:39.801Z,3.15
2019-01-14T21:23:08.535Z,4.65
2019-01-14T21:25:56.578Z,3.98
2019-01-14T21:28:38.365Z,3.80
2019-01-14T21:31:19.347Z,4.75
2019-01-14T21:34:00.660Z,3.42
2019-01-14T21:36:48.715Z,3.72
2019-01-14T21:39:36.738Z,2.80
2019-01-14T21:42:18.571Z,3.60
2019-01-14T21:45:21.822Z,4.00
2019-01-14T21:48:16.925Z,3.60
2019-01-14T21:50:40.438Z,3.55
2019-01-14T21:53:29.334Z,4.22
2019-01-14T21:56:17.296Z,4.05
2019-01-14T21:58:59.090Z,3.67
2019-01-14T22:01:47.154Z,5.28
2019-01-14T22:04:31.481Z,4.80
2019-01-14T22:07:19.493Z,5.40
2019-01-14T22:10:01.396Z,5.12
2019-01-14T22:12:49.383Z,4.50
2019-01-14T22:15:30.960Z,3.85
2019-01-14T22:18:18.949Z,4.40
2019-01-14T22:21:00.526Z,4.12
2019-01-14T22:23:48.588Z,5.10
2019-01-14T22:26:29.900Z,4.75
2019-01-14T22:29:17.961Z,4.97
2019-01-14T22:32:00.246Z,4.25
2019-01-14T22:34:48.375Z,3.80
2019-01-14T22:37:36.452Z,4.42
2019-01-14T22:40:20.041Z,4.03
2019-01-14T22:43:08.072Z,4.10
2019-01-14T22:45:49.716Z,4.33
2019-01-14T22:48:37.779Z,4.53
2019-01-14T22:51:19.348Z,4.15
2019-01-14T22:54:07.433Z,4.00
2019-01-14T22:56:49.421Z,4.00
2019-01-14T22:59:37.667Z,5.05
2019-01-14T23:02:19.506Z,5.15
2019-01-14T23:05:07.502Z,5.25
2019-01-14T23:07:55.564Z,4.40
2019-01-14T23:10:24.318Z,4.00
2019-01-14T23:13:12.373Z,5.35
2019-01-14T23:16:00.448Z,4.58
2019-01-14T23:18:41.586Z,4.08
2019-01-14T23:21:10.341Z,4.78
2019-01-14T23:23:58.309Z,3.92
2019-01-14T23:26:46.304Z,3.77
2019-01-14T23:29:28.255Z,4.40
2019-01-14T23:32:16.323Z,4.50
2019-01-14T23:34:57.601Z,4.97
2019-01-14T23:37:45.640Z,4.85
2019-01-14T23:40:27.676Z,4.20
2019-01-14T23:43:15.798Z,4.45
2019-01-14T23:45:57.705Z,4.45
2019-01-14T23:48:45.708Z,4.40
2019-01-14T23:51:27.564Z,3.92
2019-01-14T23:54:15.624Z,3.87
2019-01-14T23:56:57.719Z,4.53
2019-01-14T23:59:45.761Z,3.65
